sensor_id;sensor_type;location;lat;lon;timestamp;P1;durP1;ratioP1;P2;durP2;ratioP2
13461;SDS011;6803;45.264;5.468;2023-09-19T00:01:04;8.33;;;3.17;;
13461;SDS011;6803;45.264;5.468;2023-09-19T00:03:36;8.47;;;3.27;;
13461;SDS011;6803;45.264;5.468;2023-09-19T00:06:09;8.83;;;3.13;;
13461;SDS011;6803;45.264;5.468;2023-09-19T00:08:41;9.73;;;4.03;;
13461;SDS011;6803;45.264;5.468;2023-09-19T00:11:12;4.93;;;3.90;;
13461;SDS011;6803;45.264;5.468;2023-09-19T00:13:43;5.40;;;3.70;;
13461;SDS011;6803;45.264;5.468;2023-09-19T00:16:16;6.27;;;3.50;;
13461;SDS011;6803;45.264;5.468;2023-09-19T00:18:47;6.50;;;3.40;;
13461;SDS011;6803;45.264;5.468;2023-09-19T00:21:17;5.43;;;3.73;;
13461;SDS011;6803;45.264;5.468;2023-09-19T00:23:48;6.50;;;3.30;;
13461;SDS011;6803;45.264;5.468;2023-09-19T00:26:20;5.67;;;3.17;;
13461;SDS011;6803;45.264;5.468;2023-09-19T00:28:52;5.97;;;3.40;;
13461;SDS011;6803;45.264;5.468;2023-09-19T00:31:23;7.50;;;3.27;;
13461;SDS011;6803;45.264;5.468;2023-09-19T00:33:54;13.47;;;3.20;;
13461;SDS011;6803;45.264;5.468;2023-09-19T00:36:26;10.27;;;4.33;;
13461;SDS011;6803;45.264;5.468;2023-09-19T00:38:57;5.60;;;3.20;;
13461;SDS011;6803;45.264;5.468;2023-09-19T00:41:27;10.80;;;3.73;;
13461;SDS011;6803;45.264;5.468;2023-09-19T00:43:58;5.90;;;3.37;;
13461;SDS011;6803;45.264;5.468;2023-09-19T00:46:31;5.03;;;2.87;;
13461;SDS011;6803;45.264;5.468;2023-09-19T00:49:02;14.23;;;4.47;;
13461;SDS011;6803;45.264;5.468;2023-09-19T00:51:32;4.10;;;2.60;;
13461;SDS011;6803;45.264;5.468;2023-09-19T00:54:05;3.63;;;3.00;;
13461;SDS011;6803;45.264;5.468;2023-09-19T00:56:36;8.43;;;3.87;;
13461;SDS011;6803;45.264;5.468;2023-09-19T00:59:08;8.93;;;3.53;;
13461;SDS011;6803;45.264;5.468;2023-09-19T01:01:40;8.13;;;3.83;;
13461;SDS011;6803;45.264;5.468;2023-09-19T01:04:13;13.53;;;3.53;;
13461;SDS011;6803;45.264;5.468;2023-09-19T01:06:45;10.10;;;2.90;;
13461;SDS011;6803;45.264;5.468;2023-09-19T01:09:17;7.47;;;3.00;;
13461;SDS011;6803;45.264;5.468;2023-09-19T01:11:49;7.30;;;3.27;;
13461;SDS011;6803;45.264;5.468;2023-09-19T01:14:26;6.17;;;3.67;;
13461;SDS011;6803;45.264;5.468;2023-09-19T01:16:59;5.87;;;3.80;;
13461;SDS011;6803;45.264;5.468;2023-09-19T01:22:58;6.50;;;3.67;;
13461;SDS011;6803;45.264;5.468;2023-09-19T01:25:56;8.53;;;3.90;;
13461;SDS011;6803;45.264;5.468;2023-09-19T01:28:42;8.07;;;4.80;;
13461;SDS011;6803;45.264;5.468;2023-09-19T01:31:15;6.37;;;4.63;;
13461;SDS011;6803;45.264;5.468;2023-09-19T01:33:54;6.03;;;4.23;;
13461;SDS011;6803;45.264;5.468;2023-09-19T01:36:28;7.37;;;4.53;;
13461;SDS011;6803;45.264;5.468;2023-09-19T01:39:03;5.83;;;4.73;;
13461;SDS011;6803;45.264;5.468;2023-09-19T01:41:41;9.10;;;4.70;;
13461;SDS011;6803;45.264;5.468;2023-09-19T01:44:20;8.63;;;4.13;;
13461;SDS011;6803;45.264;5.468;2023-09-19T01:46:53;9.00;;;3.90;;
13461;SDS011;6803;45.264;5.468;2023-09-19T01:49:37;5.60;;;4.07;;
13461;SDS011;6803;45.264;5.468;2023-09-19T01:52:11;8.93;;;4.53;;
13461;SDS011;6803;45.264;5.468;2023-09-19T01:54:46;9.07;;;4.37;;
13461;SDS011;6803;45.264;5.468;2023-09-19T01:57:22;7.33;;;4.30;;
13461;SDS011;6803;45.264;5.468;2023-09-19T02:00:06;9.00;;;4.40;;
13461;SDS011;6803;45.264;5.468;2023-09-19T02:02:40;8.40;;;4.77;;
13461;SDS011;6803;45.264;5.468;2023-09-19T02:05:13;6.70;;;4.47;;
13461;SDS011;6803;45.264;5.468;2023-09-19T02:07:45;7.03;;;4.60;;
13461;SDS011;6803;45.264;5.468;2023-09-19T02:10:15;7.23;;;4.27;;
13461;SDS011;6803;45.264;5.468;2023-09-19T02:12:46;11.23;;;4.70;;
13461;SDS011;6803;45.264;5.468;2023-09-19T02:15:17;11.10;;;4.50;;
13461;SDS011;6803;45.264;5.468;2023-09-19T02:17:48;8.77;;;4.17;;
13461;SDS011;6803;45.264;5.468;2023-09-19T02:20:18;11.17;;;4.07;;
13461;SDS011;6803;45.264;5.468;2023-09-19T02:22:49;7.30;;;4.00;;
13461;SDS011;6803;45.264;5.468;2023-09-19T02:25:20;13.20;;;3.90;;
13461;SDS011;6803;45.264;5.468;2023-09-19T02:27:50;11.57;;;4.43;;
13461;SDS011;6803;45.264;5.468;2023-09-19T02:30:23;10.07;;;4.33;;
13461;SDS011;6803;45.264;5.468;2023-09-19T02:32:54;9.23;;;4.43;;
13461;SDS011;6803;45.264;5.468;2023-09-19T02:35:24;23.37;;;4.50;;
13461;SDS011;6803;45.264;5.468;2023-09-19T02:37:55;9.97;;;3.90;;
13461;SDS011;6803;45.264;5.468;2023-09-19T02:40:26;7.73;;;4.10;;
13461;SDS011;6803;45.264;5.468;2023-09-19T02:42:57;7.67;;;4.57;;
13461;SDS011;6803;45.264;5.468;2023-09-19T02:45:29;24.37;;;4.43;;
13461;SDS011;6803;45.264;5.468;2023-09-19T02:48:00;19.73;;;5.70;;
13461;SDS011;6803;45.264;5.468;2023-09-19T02:50:32;7.27;;;4.53;;
13461;SDS011;6803;45.264;5.468;2023-09-19T02:53:02;13.23;;;4.03;;
13461;SDS011;6803;45.264;5.468;2023-09-19T02:55:34;11.67;;;5.13;;
13461;SDS011;6803;45.264;5.468;2023-09-19T02:58:06;8.43;;;4.20;;
13461;SDS011;6803;45.264;5.468;2023-09-19T03:00:39;6.60;;;4.10;;
13461;SDS011;6803;45.264;5.468;2023-09-19T03:03:12;8.03;;;4.50;;
13461;SDS011;6803;45.264;5.468;2023-09-19T03:05:44;9.77;;;3.43;;
13461;SDS011;6803;45.264;5.468;2023-09-19T03:08:17;5.73;;;3.83;;
13461;SDS011;6803;45.264;5.468;2023-09-19T03:10:47;8.40;;;3.97;;
13461;SDS011;6803;45.264;5.468;2023-09-19T03:13:18;8.57;;;4.23;;
13461;SDS011;6803;45.264;5.468;2023-09-19T03:15:49;4.43;;;3.70;;
13461;SDS011;6803;45.264;5.468;2023-09-19T03:18:19;33.03;;;5.80;;
13461;SDS011;6803;45.264;5.468;2023-09-19T03:20:53;13.97;;;4.13;;
13461;SDS011;6803;45.264;5.468;2023-09-19T03:23:23;9.13;;;4.30;;
13461;SDS011;6803;45.264;5.468;2023-09-19T03:25:55;8.47;;;5.23;;
13461;SDS011;6803;45.264;5.468;2023-09-19T03:28:27;12.80;;;5.10;;
13461;SDS011;6803;45.264;5.468;2023-09-19T03:30:58;13.27;;;4.83;;
13461;SDS011;6803;45.264;5.468;2023-09-19T03:33:30;14.90;;;4.30;;
13461;SDS011;6803;45.264;5.468;2023-09-19T03:36:02;13.43;;;5.17;;
13461;SDS011;6803;45.264;5.468;2023-09-19T03:38:33;7.30;;;4.37;;
13461;SDS011;6803;45.264;5.468;2023-09-19T03:41:04;10.23;;;5.27;;
13461;SDS011;6803;45.264;5.468;2023-09-19T03:43:35;16.10;;;4.90;;
13461;SDS011;6803;45.264;5.468;2023-09-19T03:46:06;28.30;;;4.80;;
13461;SDS011;6803;45.264;5.468;2023-09-19T03:48:36;49.80;;;4.60;;
13461;SDS011;6803;45.264;5.468;2023-09-19T03:51:07;28.60;;;5.67;;
13461;SDS011;6803;45.264;5.468;2023-09-19T03:53:38;24.13;;;4.07;;
13461;SDS011;6803;45.264;5.468;2023-09-19T03:56:09;25.60;;;4.57;;
13461;SDS011;6803;45.264;5.468;2023-09-19T03:58:39;10.87;;;4.93;;
13461;SDS011;6803;45.264;5.468;2023-09-19T04:01:09;11.47;;;5.30;;
13461;SDS011;6803;45.264;5.468;2023-09-19T04:03:41;27.17;;;7.50;;
13461;SDS011;6803;45.264;5.468;2023-09-19T04:06:16;24.70;;;5.60;;
13461;SDS011;6803;45.264;5.468;2023-09-19T04:08:46;31.67;;;5.17;;
13461;SDS011;6803;45.264;5.468;2023-09-19T04:11:16;8.70;;;5.00;;
13461;SDS011;6803;45.264;5.468;2023-09-19T04:13:47;10.23;;;4.80;;
13461;SDS011;6803;45.264;5.468;2023-09-19T04:16:17;5.80;;;4.73;;
13461;SDS011;6803;45.264;5.468;2023-09-19T04:18:48;12.83;;;4.83;;
13461;SDS011;6803;45.264;5.468;2023-09-19T04:21:19;8.67;;;4.70;;
13461;SDS011;6803;45.264;5.468;2023-09-19T04:23:50;11.53;;;4.53;;
13461;SDS011;6803;45.264;5.468;2023-09-19T04:26:20;15.67;;;5.63;;
13461;SDS011;6803;45.264;5.468;2023-09-19T04:28:51;18.37;;;6.03;;
13461;SDS011;6803;45.264;5.468;2023-09-19T04:31:21;7.97;;;4.93;;
13461;SDS011;6803;45.264;5.468;2023-09-19T04:33:52;7.17;;;5.40;;
13461;SDS011;6803;45.264;5.468;2023-09-19T04:36:23;8.90;;;5.20;;
13461;SDS011;6803;45.264;5.468;2023-09-19T04:38:55;12.73;;;5.70;;
13461;SDS011;6803;45.264;5.468;2023-09-19T04:41:26;10.80;;;5.07;;
13461;SDS011;6803;45.264;5.468;2023-09-19T04:43:57;6.00;;;4.83;;
13461;SDS011;6803;45.264;5.468;2023-09-19T04:46:27;4.80;;;4.30;;
13461;SDS011;6803;45.264;5.468;2023-09-19T04:48:58;5.87;;;3.73;;
13461;SDS011;6803;45.264;5.468;2023-09-19T04:51:29;9.13;;;4.10;;
13461;SDS011;6803;45.264;5.468;2023-09-19T04:54:01;5.27;;;3.80;;
13461;SDS011;6803;45.264;5.468;2023-09-19T04:56:33;10.47;;;4.40;;
13461;SDS011;6803;45.264;5.468;2023-09-19T04:59:04;7.10;;;4.07;;
13461;SDS011;6803;45.264;5.468;2023-09-19T05:01:34;9.73;;;4.40;;
13461;SDS011;6803;45.264;5.468;2023-09-19T05:04:15;7.87;;;3.80;;
13461;SDS011;6803;45.264;5.468;2023-09-19T05:06:46;9.13;;;5.37;;
13461;SDS011;6803;45.264;5.468;2023-09-19T05:09:16;6.40;;;4.07;;
13461;SDS011;6803;45.264;5.468;2023-09-19T05:11:47;11.80;;;4.67;;
13461;SDS011;6803;45.264;5.468;2023-09-19T05:14:19;8.07;;;3.80;;
13461;SDS011;6803;45.264;5.468;2023-09-19T05:16:50;6.13;;;3.60;;
13461;SDS011;6803;45.264;5.468;2023-09-19T05:19:21;5.57;;;3.67;;
13461;SDS011;6803;45.264;5.468;2023-09-19T05:21:52;5.77;;;3.77;;
13461;SDS011;6803;45.264;5.468;2023-09-19T05:24:23;5.37;;;3.50;;
13461;SDS011;6803;45.264;5.468;2023-09-19T05:26:54;4.87;;;3.60;;
13461;SDS011;6803;45.264;5.468;2023-09-19T05:29:25;6.47;;;3.97;;
13461;SDS011;6803;45.264;5.468;2023-09-19T05:31:56;6.17;;;3.97;;
13461;SDS011;6803;45.264;5.468;2023-09-19T05:34:26;10.83;;;3.50;;
13461;SDS011;6803;45.264;5.468;2023-09-19T05:36:58;6.67;;;3.30;;
13461;SDS011;6803;45.264;5.468;2023-09-19T05:39:29;10.57;;;3.63;;
13461;SDS011;6803;45.264;5.468;2023-09-19T05:41:59;10.97;;;3.80;;
13461;SDS011;6803;45.264;5.468;2023-09-19T05:44:31;8.87;;;3.67;;
13461;SDS011;6803;45.264;5.468;2023-09-19T05:47:02;7.77;;;4.63;;
13461;SDS011;6803;45.264;5.468;2023-09-19T05:49:33;8.10;;;5.70;;
13461;SDS011;6803;45.264;5.468;2023-09-19T05:52:07;10.13;;;6.90;;
13461;SDS011;6803;45.264;5.468;2023-09-19T05:54:38;110.17;;;14.83;;
13461;SDS011;6803;45.264;5.468;2023-09-19T05:57:08;47.07;;;10.87;;
13461;SDS011;6803;45.264;5.468;2023-09-19T05:59:40;72.87;;;12.33;;
13461;SDS011;6803;45.264;5.468;2023-09-19T06:02:11;23.57;;;9.10;;
13461;SDS011;6803;45.264;5.468;2023-09-19T06:04:41;11.47;;;8.23;;
13461;SDS011;6803;45.264;5.468;2023-09-19T06:07:12;12.10;;;7.53;;
13461;SDS011;6803;45.264;5.468;2023-09-19T06:09:44;12.67;;;8.60;;
13461;SDS011;6803;45.264;5.468;2023-09-19T06:12:14;12.73;;;8.40;;
13461;SDS011;6803;45.264;5.468;2023-09-19T06:14:45;17.50;;;8.50;;
13461;SDS011;6803;45.264;5.468;2023-09-19T06:17:17;13.47;;;8.53;;
13461;SDS011;6803;45.264;5.468;2023-09-19T06:19:47;12.97;;;9.03;;
13461;SDS011;6803;45.264;5.468;2023-09-19T06:22:18;13.20;;;7.73;;
13461;SDS011;6803;45.264;5.468;2023-09-19T06:24:59;14.67;;;8.00;;
13461;SDS011;6803;45.264;5.468;2023-09-19T06:27:31;12.27;;;7.30;;
13461;SDS011;6803;45.264;5.468;2023-09-19T06:30:12;15.20;;;8.10;;
13461;SDS011;6803;45.264;5.468;2023-09-19T06:32:45;15.97;;;8.33;;
13461;SDS011;6803;45.264;5.468;2023-09-19T06:35:17;15.00;;;8.67;;
13461;SDS011;6803;45.264;5.468;2023-09-19T06:37:57;11.53;;;7.97;;
13461;SDS011;6803;45.264;5.468;2023-09-19T06:40:30;11.07;;;7.63;;
13461;SDS011;6803;45.264;5.468;2023-09-19T06:43:11;10.80;;;7.93;;
13461;SDS011;6803;45.264;5.468;2023-09-19T06:45:42;12.10;;;8.37;;
13461;SDS011;6803;45.264;5.468;2023-09-19T06:48:23;13.60;;;7.47;;
13461;SDS011;6803;45.264;5.468;2023-09-19T06:50:54;14.07;;;7.70;;
13461;SDS011;6803;45.264;5.468;2023-09-19T06:53:36;11.60;;;7.10;;
13461;SDS011;6803;45.264;5.468;2023-09-19T06:56:08;10.73;;;6.90;;
13461;SDS011;6803;45.264;5.468;2023-09-19T06:58:38;9.40;;;6.40;;
13461;SDS011;6803;45.264;5.468;2023-09-19T07:01:10;9.40;;;6.87;;
13461;SDS011;6803;45.264;5.468;2023-09-19T07:03:43;11.07;;;6.70;;
13461;SDS011;6803;45.264;5.468;2023-09-19T07:06:14;9.33;;;6.93;;
13461;SDS011;6803;45.264;5.468;2023-09-19T07:08:54;10.00;;;6.97;;
13461;SDS011;6803;45.264;5.468;2023-09-19T07:11:24;8.57;;;6.70;;
13461;SDS011;6803;45.264;5.468;2023-09-19T07:14:05;16.43;;;7.13;;
13461;SDS011;6803;45.264;5.468;2023-09-19T07:16:36;11.10;;;7.37;;
13461;SDS011;6803;45.264;5.468;2023-09-19T07:19:16;7.47;;;6.20;;
13461;SDS011;6803;45.264;5.468;2023-09-19T07:21:47;9.23;;;6.30;;
13461;SDS011;6803;45.264;5.468;2023-09-19T07:24:27;8.63;;;6.80;;
13461;SDS011;6803;45.264;5.468;2023-09-19T07:26:58;14.23;;;6.97;;
13461;SDS011;6803;45.264;5.468;2023-09-19T07:29:29;10.40;;;6.30;;
13461;SDS011;6803;45.264;5.468;2023-09-19T07:32:00;10.30;;;6.40;;
13461;SDS011;6803;45.264;5.468;2023-09-19T07:34:30;14.23;;;6.37;;
13461;SDS011;6803;45.264;5.468;2023-09-19T07:37:01;10.17;;;5.03;;
13461;SDS011;6803;45.264;5.468;2023-09-19T07:39:32;7.80;;;5.70;;
13461;SDS011;6803;45.264;5.468;2023-09-19T07:42:02;5.57;;;3.43;;
13461;SDS011;6803;45.264;5.468;2023-09-19T07:44:35;7.83;;;4.23;;
13461;SDS011;6803;45.264;5.468;2023-09-19T07:47:06;7.63;;;3.90;;
13461;SDS011;6803;45.264;5.468;2023-09-19T07:49:37;9.23;;;4.20;;
13461;SDS011;6803;45.264;5.468;2023-09-19T07:52:10;6.43;;;3.93;;
13461;SDS011;6803;45.264;5.468;2023-09-19T07:54:50;3.67;;;3.20;;
13461;SDS011;6803;45.264;5.468;2023-09-19T07:57:21;3.10;;;2.63;;
13461;SDS011;6803;45.264;5.468;2023-09-19T07:59:51;3.57;;;2.37;;
13461;SDS011;6803;45.264;5.468;2023-09-19T08:02:22;3.27;;;2.70;;
13461;SDS011;6803;45.264;5.468;2023-09-19T08:04:52;4.63;;;2.07;;
13461;SDS011;6803;45.264;5.468;2023-09-19T08:07:23;6.73;;;2.57;;
13461;SDS011;6803;45.264;5.468;2023-09-19T08:09:53;2.90;;;1.60;;
13461;SDS011;6803;45.264;5.468;2023-09-19T08:12:24;3.10;;;1.77;;
13461;SDS011;6803;45.264;5.468;2023-09-19T08:14:55;2.03;;;1.53;;
13461;SDS011;6803;45.264;5.468;2023-09-19T08:17:26;1.93;;;1.10;;
13461;SDS011;6803;45.264;5.468;2023-09-19T08:19:56;1.97;;;1.27;;
13461;SDS011;6803;45.264;5.468;2023-09-19T08:22:28;3.47;;;1.30;;
13461;SDS011;6803;45.264;5.468;2023-09-19T08:24:59;3.87;;;1.23;;
13461;SDS011;6803;45.264;5.468;2023-09-19T08:27:31;3.60;;;1.00;;
13461;SDS011;6803;45.264;5.468;2023-09-19T08:30:14;3.07;;;1.10;;
13461;SDS011;6803;45.264;5.468;2023-09-19T08:32:47;1.97;;;1.03;;
13461;SDS011;6803;45.264;5.468;2023-09-19T08:35:18;2.07;;;1.00;;
13461;SDS011;6803;45.264;5.468;2023-09-19T08:37:58;3.40;;;1.00;;
13461;SDS011;6803;45.264;5.468;2023-09-19T08:40:31;1.50;;;1.10;;
13461;SDS011;6803;45.264;5.468;2023-09-19T08:43:02;1.37;;;0.67;;
13461;SDS011;6803;45.264;5.468;2023-09-19T08:45:34;1.67;;;1.27;;
13461;SDS011;6803;45.264;5.468;2023-09-19T08:48:11;3.20;;;0.90;;
13461;SDS011;6803;45.264;5.468;2023-09-19T08:50:51;2.00;;;0.80;;
13461;SDS011;6803;45.264;5.468;2023-09-19T08:53:35;1.73;;;1.10;;
13461;SDS011;6803;45.264;5.468;2023-09-19T08:56:10;2.63;;;0.90;;
13461;SDS011;6803;45.264;5.468;2023-09-19T08:58:44;1.57;;;0.73;;
13461;SDS011;6803;45.264;5.468;2023-09-19T09:01:17;1.67;;;1.00;;
13461;SDS011;6803;45.264;5.468;2023-09-19T09:03:58;1.33;;;0.97;;
13461;SDS011;6803;45.264;5.468;2023-09-19T09:06:30;3.57;;;1.00;;
13461;SDS011;6803;45.264;5.468;2023-09-19T09:09:11;4.10;;;1.10;;
13461;SDS011;6803;45.264;5.468;2023-09-19T09:11:42;1.17;;;0.70;;
13461;SDS011;6803;45.264;5.468;2023-09-19T09:14:13;1.87;;;1.13;;
13461;SDS011;6803;45.264;5.468;2023-09-19T09:16:44;1.77;;;0.93;;
13461;SDS011;6803;45.264;5.468;2023-09-19T09:19:17;1.07;;;0.70;;
13461;SDS011;6803;45.264;5.468;2023-09-19T09:21:49;1.90;;;0.80;;
13461;SDS011;6803;45.264;5.468;2023-09-19T09:24:29;2.00;;;1.00;;
13461;SDS011;6803;45.264;5.468;2023-09-19T09:27:04;3.60;;;1.10;;
13461;SDS011;6803;45.264;5.468;2023-09-19T09:29:44;1.53;;;0.90;;
13461;SDS011;6803;45.264;5.468;2023-09-19T09:32:18;2.53;;;0.83;;
13461;SDS011;6803;45.264;5.468;2023-09-19T09:34:51;1.00;;;0.83;;
13461;SDS011;6803;45.264;5.468;2023-09-19T09:37:24;1.47;;;0.97;;
13461;SDS011;6803;45.264;5.468;2023-09-19T09:39:58;2.20;;;0.87;;
13461;SDS011;6803;45.264;5.468;2023-09-19T09:42:42;2.40;;;1.00;;
13461;SDS011;6803;45.264;5.468;2023-09-19T09:45:15;2.07;;;1.00;;
13461;SDS011;6803;45.264;5.468;2023-09-19T09:47:58;1.80;;;0.80;;
13461;SDS011;6803;45.264;5.468;2023-09-19T09:50:31;2.37;;;0.87;;
13461;SDS011;6803;45.264;5.468;2023-09-19T09:53:21;1.87;;;1.00;;
13461;SDS011;6803;45.264;5.468;2023-09-19T09:55:59;2.20;;;0.90;;
13461;SDS011;6803;45.264;5.468;2023-09-19T09:58:34;1.63;;;1.10;;
13461;SDS011;6803;45.264;5.468;2023-09-19T10:01:08;2.87;;;1.00;;
13461;SDS011;6803;45.264;5.468;2023-09-19T10:03:40;3.07;;;1.57;;
13461;SDS011;6803;45.264;5.468;2023-09-19T10:06:15;1.60;;;1.00;;
13461;SDS011;6803;45.264;5.468;2023-09-19T10:09:06;1.53;;;1.00;;
13461;SDS011;6803;45.264;5.468;2023-09-19T10:11:42;3.07;;;0.93;;
13461;SDS011;6803;45.264;5.468;2023-09-19T10:14:14;1.63;;;1.10;;
13461;SDS011;6803;45.264;5.468;2023-09-19T10:16:49;4.83;;;1.60;;
13461;SDS011;6803;45.264;5.468;2023-09-19T10:19:30;2.60;;;1.10;;
13461;SDS011;6803;45.264;5.468;2023-09-19T10:22:03;0.87;;;0.80;;
13461;SDS011;6803;45.264;5.468;2023-09-19T10:24:36;1.82;;;1.10;;
13461;SDS011;6803;45.264;5.468;2023-09-19T10:27:10;1.93;;;0.90;;
13461;SDS011;6803;45.264;5.468;2023-09-19T10:29:43;4.17;;;1.10;;
13461;SDS011;6803;45.264;5.468;2023-09-19T10:32:17;1.50;;;0.87;;
13461;SDS011;6803;45.264;5.468;2023-09-19T10:34:51;4.80;;;1.50;;
13461;SDS011;6803;45.264;5.468;2023-09-19T10:37:23;3.10;;;0.90;;
13461;SDS011;6803;45.264;5.468;2023-09-19T10:40:05;1.67;;;1.00;;
13461;SDS011;6803;45.264;5.468;2023-09-19T10:42:38;3.00;;;1.20;;
13461;SDS011;6803;45.264;5.468;2023-09-19T10:45:21;1.07;;;0.80;;
13461;SDS011;6803;45.264;5.468;2023-09-19T10:47:53;1.27;;;0.93;;
13461;SDS011;6803;45.264;5.468;2023-09-19T10:50:25;1.03;;;0.83;;
13461;SDS011;6803;45.264;5.468;2023-09-19T10:53:06;1.87;;;1.10;;
13461;SDS011;6803;45.264;5.468;2023-09-19T10:55:38;3.37;;;1.10;;
13461;SDS011;6803;45.264;5.468;2023-09-19T10:58:26;1.40;;;1.10;;
13461;SDS011;6803;45.264;5.468;2023-09-19T11:00:58;1.60;;;1.20;;
13461;SDS011;6803;45.264;5.468;2023-09-19T11:03:31;3.08;;;1.22;;
13461;SDS011;6803;45.264;5.468;2023-09-19T11:06:08;2.62;;;1.10;;
13461;SDS011;6803;45.264;5.468;2023-09-19T11:11:52;4.15;;;1.70;;
13461;SDS011;6803;45.264;5.468;2023-09-19T11:14:39;4.10;;;1.32;;
13461;SDS011;6803;45.264;5.468;2023-09-19T11:20:23;2.55;;;1.27;;
13461;SDS011;6803;45.264;5.468;2023-09-19T11:23:19;1.77;;;1.20;;
13461;SDS011;6803;45.264;5.468;2023-09-19T11:25:52;1.87;;;1.20;;
13461;SDS011;6803;45.264;5.468;2023-09-19T11:28:29;1.72;;;1.37;;
13461;SDS011;6803;45.264;5.468;2023-09-19T11:34:42;2.70;;;1.65;;
13461;SDS011;6803;45.264;5.468;2023-09-19T11:40:39;3.58;;;1.20;;
13461;SDS011;6803;45.264;5.468;2023-09-19T11:43:33;3.72;;;1.37;;
13461;SDS011;6803;45.264;5.468;2023-09-19T11:46:06;1.42;;;1.00;;
13461;SDS011;6803;45.264;5.468;2023-09-19T11:48:48;1.77;;;1.00;;
13461;SDS011;6803;45.264;5.468;2023-09-19T11:51:20;3.30;;;1.20;;
13461;SDS011;6803;45.264;5.468;2023-09-19T11:53:54;1.47;;;1.37;;
13461;SDS011;6803;45.264;5.468;2023-09-19T11:56:27;0.97;;;0.87;;
13461;SDS011;6803;45.264;5.468;2023-09-19T11:59:08;1.80;;;1.10;;
13461;SDS011;6803;45.264;5.468;2023-09-19T12:01:42;2.00;;;0.93;;
13461;SDS011;6803;45.264;5.468;2023-09-19T12:04:13;1.50;;;0.90;;
13461;SDS011;6803;45.264;5.468;2023-09-19T12:06:45;1.55;;;1.20;;
13461;SDS011;6803;45.264;5.468;2023-09-19T12:09:35;4.28;;;1.20;;
13461;SDS011;6803;45.264;5.468;2023-09-19T12:12:08;1.50;;;1.00;;
13461;SDS011;6803;45.264;5.468;2023-09-19T12:14:40;1.22;;;1.00;;
13461;SDS011;6803;45.264;5.468;2023-09-19T12:17:13;1.45;;;1.20;;
13461;SDS011;6803;45.264;5.468;2023-09-19T12:19:50;3.08;;;0.90;;
13461;SDS011;6803;45.264;5.468;2023-09-19T12:22:21;2.00;;;1.10;;
13461;SDS011;6803;45.264;5.468;2023-09-19T12:24:53;0.98;;;0.70;;
13461;SDS011;6803;45.264;5.468;2023-09-19T12:27:25;1.37;;;0.93;;
13461;SDS011;6803;45.264;5.468;2023-09-19T12:29:58;0.75;;;0.60;;
13461;SDS011;6803;45.264;5.468;2023-09-19T12:32:35;0.68;;;0.68;;
13461;SDS011;6803;45.264;5.468;2023-09-19T12:35:08;1.62;;;0.80;;
13461;SDS011;6803;45.264;5.468;2023-09-19T12:37:43;0.70;;;0.60;;
13461;SDS011;6803;45.264;5.468;2023-09-19T12:40:16;1.12;;;0.80;;
13461;SDS011;6803;45.264;5.468;2023-09-19T12:42:50;0.82;;;0.78;;
13461;SDS011;6803;45.264;5.468;2023-09-19T12:45:23;0.88;;;0.80;;
13461;SDS011;6803;45.264;5.468;2023-09-19T12:51:05;2.20;;;1.02;;
13461;SDS011;6803;45.264;5.468;2023-09-19T12:53:38;2.17;;;0.90;;
13461;SDS011;6803;45.264;5.468;2023-09-19T12:56:12;1.20;;;0.70;;
13461;SDS011;6803;45.264;5.468;2023-09-19T12:58:51;1.30;;;0.82;;
13461;SDS011;6803;45.264;5.468;2023-09-19T13:01:24;2.37;;;0.98;;
13461;SDS011;6803;45.264;5.468;2023-09-19T13:04:12;3.70;;;0.93;;
13461;SDS011;6803;45.264;5.468;2023-09-19T13:06:48;2.05;;;0.85;;
13461;SDS011;6803;45.264;5.468;2023-09-19T13:09:20;1.43;;;0.80;;
13461;SDS011;6803;45.264;5.468;2023-09-19T13:11:54;3.58;;;1.10;;
13461;SDS011;6803;45.264;5.468;2023-09-19T13:14:35;1.87;;;0.90;;
13461;SDS011;6803;45.264;5.468;2023-09-19T13:17:07;1.22;;;0.93;;
13461;SDS011;6803;45.264;5.468;2023-09-19T13:19:45;1.77;;;1.00;;
13461;SDS011;6803;45.264;5.468;2023-09-19T13:22:36;3.00;;;0.93;;
13461;SDS011;6803;45.264;5.468;2023-09-19T13:25:21;1.70;;;1.00;;
13461;SDS011;6803;45.264;5.468;2023-09-19T13:27:53;4.55;;;1.10;;
13461;SDS011;6803;45.264;5.468;2023-09-19T13:30:36;2.05;;;1.15;;
13461;SDS011;6803;45.264;5.468;2023-09-19T13:33:16;3.40;;;1.15;;
13461;SDS011;6803;45.264;5.468;2023-09-19T13:35:49;1.85;;;1.00;;
13461;SDS011;6803;45.264;5.468;2023-09-19T13:38:29;2.10;;;0.97;;
13461;SDS011;6803;45.264;5.468;2023-09-19T13:41:02;3.20;;;0.98;;
13461;SDS011;6803;45.264;5.468;2023-09-19T13:43:42;2.03;;;0.90;;
13461;SDS011;6803;45.264;5.468;2023-09-19T13:46:16;1.32;;;0.95;;
13461;SDS011;6803;45.264;5.468;2023-09-19T13:48:49;2.52;;;0.93;;
13461;SDS011;6803;45.264;5.468;2023-09-19T13:51:21;1.27;;;0.95;;
13461;SDS011;6803;45.264;5.468;2023-09-19T13:54:05;2.00;;;0.77;;
13461;SDS011;6803;45.264;5.468;2023-09-19T13:56:36;0.82;;;0.65;;
13461;SDS011;6803;45.264;5.468;2023-09-19T13:59:07;2.17;;;1.02;;
13461;SDS011;6803;45.264;5.468;2023-09-19T14:01:38;2.85;;;1.30;;
13461;SDS011;6803;45.264;5.468;2023-09-19T14:04:10;1.55;;;1.00;;
13461;SDS011;6803;45.264;5.468;2023-09-19T14:06:42;2.90;;;0.90;;
13461;SDS011;6803;45.264;5.468;2023-09-19T14:09:13;2.55;;;0.90;;
13461;SDS011;6803;45.264;5.468;2023-09-19T14:11:46;2.35;;;1.00;;
13461;SDS011;6803;45.264;5.468;2023-09-19T14:14:16;1.17;;;0.88;;
13461;SDS011;6803;45.264;5.468;2023-09-19T14:16:48;2.95;;;1.42;;
13461;SDS011;6803;45.264;5.468;2023-09-19T14:19:20;1.72;;;0.78;;
13461;SDS011;6803;45.264;5.468;2023-09-19T14:21:51;3.33;;;1.17;;
13461;SDS011;6803;45.264;5.468;2023-09-19T14:24:23;0.80;;;0.72;;
13461;SDS011;6803;45.264;5.468;2023-09-19T14:26:54;2.20;;;1.15;;
13461;SDS011;6803;45.264;5.468;2023-09-19T14:29:25;1.37;;;0.70;;
13461;SDS011;6803;45.264;5.468;2023-09-19T14:31:56;2.35;;;1.05;;
13461;SDS011;6803;45.264;5.468;2023-09-19T14:34:27;2.92;;;0.98;;
13461;SDS011;6803;45.264;5.468;2023-09-19T14:37:00;1.50;;;0.90;;
13461;SDS011;6803;45.264;5.468;2023-09-19T14:39:31;1.00;;;0.72;;
13461;SDS011;6803;45.264;5.468;2023-09-19T14:42:02;1.10;;;0.70;;
13461;SDS011;6803;45.264;5.468;2023-09-19T14:44:33;2.10;;;1.07;;
13461;SDS011;6803;45.264;5.468;2023-09-19T14:47:05;2.25;;;0.90;;
13461;SDS011;6803;45.264;5.468;2023-09-19T14:49:36;1.20;;;1.10;;
13461;SDS011;6803;45.264;5.468;2023-09-19T14:52:07;1.52;;;0.78;;
13461;SDS011;6803;45.264;5.468;2023-09-19T14:54:42;2.47;;;0.90;;
13461;SDS011;6803;45.264;5.468;2023-09-19T14:57:12;1.60;;;0.88;;
13461;SDS011;6803;45.264;5.468;2023-09-19T14:59:42;5.55;;;1.35;;
13461;SDS011;6803;45.264;5.468;2023-09-19T15:02:13;0.82;;;0.70;;
13461;SDS011;6803;45.264;5.468;2023-09-19T15:04:45;3.00;;;1.15;;
13461;SDS011;6803;45.264;5.468;2023-09-19T15:07:16;1.25;;;0.60;;
13461;SDS011;6803;45.264;5.468;2023-09-19T15:09:47;4.15;;;1.02;;
13461;SDS011;6803;45.264;5.468;2023-09-19T15:12:17;1.30;;;1.00;;
13461;SDS011;6803;45.264;5.468;2023-09-19T15:14:48;0.95;;;0.80;;
13461;SDS011;6803;45.264;5.468;2023-09-19T15:17:19;2.77;;;1.05;;
13461;SDS011;6803;45.264;5.468;2023-09-19T15:19:51;1.37;;;0.90;;
13461;SDS011;6803;45.264;5.468;2023-09-19T15:22:23;3.50;;;0.77;;
13461;SDS011;6803;45.264;5.468;2023-09-19T15:24:54;2.12;;;1.00;;
13461;SDS011;6803;45.264;5.468;2023-09-19T15:27:25;1.10;;;0.83;;
13461;SDS011;6803;45.264;5.468;2023-09-19T15:29:57;0.67;;;0.67;;
13461;SDS011;6803;45.264;5.468;2023-09-19T15:32:30;0.80;;;0.77;;
13461;SDS011;6803;45.264;5.468;2023-09-19T15:35:00;1.83;;;1.00;;
13461;SDS011;6803;45.264;5.468;2023-09-19T15:37:31;1.80;;;0.93;;
13461;SDS011;6803;45.264;5.468;2023-09-19T15:40:02;1.00;;;0.90;;
13461;SDS011;6803;45.264;5.468;2023-09-19T15:42:36;2.47;;;1.07;;
13461;SDS011;6803;45.264;5.468;2023-09-19T15:45:08;1.37;;;0.70;;
13461;SDS011;6803;45.264;5.468;2023-09-19T15:47:39;1.93;;;0.90;;
13461;SDS011;6803;45.264;5.468;2023-09-19T15:50:10;1.67;;;0.90;;
13461;SDS011;6803;45.264;5.468;2023-09-19T15:52:44;0.90;;;0.80;;
13461;SDS011;6803;45.264;5.468;2023-09-19T15:55:15;1.83;;;0.90;;